createdAt,value
2022-12-16T00:02:29.968Z,2.30
2022-12-16T00:05:32.288Z,3.00
2022-12-16T00:08:37.073Z,2.93
2022-12-16T00:14:41.540Z,3.73
2022-12-16T00:17:43.624Z,3.13
2022-12-16T00:20:47.054Z,5.17
2022-12-16T00:23:49.214Z,2.97
2022-12-16T00:26:51.429Z,5.77
2022-12-16T00:29:53.948Z,5.20
2022-12-16T00:32:55.923Z,17.80
2022-12-16T00:35:57.972Z,13.90
2022-12-16T00:38:59.943Z,3.87
2022-12-16T00:42:01.953Z,3.23
2022-12-16T00:45:04.905Z,4.37
2022-12-16T00:48:07.830Z,3.27
2022-12-16T00:51:09.913Z,2.93
2022-12-16T00:54:11.981Z,3.43
2022-12-16T00:57:13.996Z,2.77
2022-12-16T01:00:19.155Z,3.60
2022-12-16T01:03:22.176Z,3.70
2022-12-16T01:06:25.290Z,2.57
2022-12-16T01:09:27.330Z,2.30
2022-12-16T01:12:29.373Z,3.13
2022-12-16T01:15:31.372Z,3.17
2022-12-16T01:18:33.656Z,2.93
2022-12-16T01:21:35.977Z,2.70
2022-12-16T01:24:38.610Z,3.50
2022-12-16T01:27:40.882Z,3.87
2022-12-16T01:30:43.143Z,4.50
2022-12-16T01:33:45.544Z,3.17
2022-12-16T01:36:47.611Z,5.70
2022-12-16T01:39:49.675Z,5.77
2022-12-16T01:42:52.632Z,4.57
2022-12-16T01:46:04.022Z,3.20
2022-12-16T01:49:15.189Z,3.93
2022-12-16T01:52:21.915Z,3.63
2022-12-16T01:55:38.899Z,3.20
2022-12-16T01:58:42.438Z,4.53
2022-12-16T02:01:44.572Z,2.30
2022-12-16T02:05:05.164Z,2.20
2022-12-16T02:08:09.968Z,2.67
2022-12-16T02:14:55.101Z,2.93
2022-12-16T02:17:57.484Z,3.97
2022-12-16T02:21:11.554Z,3.30
2022-12-16T02:24:44.470Z,2.47
2022-12-16T02:28:43.406Z,2.63
2022-12-16T02:31:59.230Z,2.83
2022-12-16T02:35:14.341Z,4.67
2022-12-16T02:41:42.508Z,3.83
2022-12-16T02:45:05.274Z,5.47
2022-12-16T02:48:07.472Z,4.93
2022-12-16T02:51:11.040Z,3.30
2022-12-16T02:54:14.861Z,3.47
2022-12-16T02:57:45.017Z,3.97
2022-12-16T03:01:17.634Z,3.87
2022-12-16T03:04:27.526Z,4.80
2022-12-16T03:07:34.085Z,3.67
2022-12-16T03:10:46.953Z,2.70
2022-12-16T03:13:54.076Z,2.40
2022-12-16T03:16:58.372Z,2.93
2022-12-16T03:20:12.631Z,3.17
2022-12-16T03:23:22.905Z,2.20
2022-12-16T03:26:34.635Z,2.67
2022-12-16T03:29:52.514Z,4.50
2022-12-16T03:33:00.465Z,2.70
2022-12-16T03:36:22.265Z,2.23
2022-12-16T03:39:27.252Z,3.30
2022-12-16T03:42:29.691Z,2.80
2022-12-16T03:45:37.881Z,2.17
2022-12-16T03:48:46.651Z,2.93
2022-12-16T03:51:49.188Z,2.93
2022-12-16T03:54:51.239Z,2.53
2022-12-16T03:57:54.591Z,3.73
2022-12-16T04:00:56.589Z,2.87
2022-12-16T04:03:58.701Z,3.70
2022-12-16T04:07:19.239Z,4.90
2022-12-16T04:10:41.203Z,3.63
2022-12-16T04:14:07.963Z,2.63
2022-12-16T04:17:31.702Z,3.67
2022-12-16T04:20:56.473Z,2.53
2022-12-16T04:24:17.463Z,4.05
2022-12-16T04:27:25.715Z,2.63
2022-12-16T04:30:30.573Z,3.50
2022-12-16T04:33:51.576Z,3.50
2022-12-16T04:37:14.663Z,3.13
2022-12-16T04:40:35.195Z,3.17
2022-12-16T04:43:55.955Z,3.60
2022-12-16T04:47:16.646Z,3.50
2022-12-16T04:50:38.415Z,4.60
2022-12-16T04:53:59.146Z,2.70
2022-12-16T04:57:19.927Z,2.67
2022-12-16T05:00:40.627Z,2.83
2022-12-16T05:04:03.169Z,2.70
2022-12-16T05:07:24.099Z,3.23
2022-12-16T05:10:44.678Z,2.50
2022-12-16T05:14:05.208Z,2.90
2022-12-16T05:17:25.963Z,3.00
2022-12-16T05:20:46.559Z,3.50
2022-12-16T05:24:07.266Z,3.47
2022-12-16T05:27:41.738Z,3.17
2022-12-16T05:31:02.422Z,2.50
2022-12-16T05:34:23.147Z,2.27
2022-12-16T05:37:43.789Z,2.53
2022-12-16T05:41:04.366Z,2.10
2022-12-16T05:44:25.111Z,2.17
2022-12-16T05:47:46.516Z,2.00
2022-12-16T05:51:07.303Z,3.00
2022-12-16T05:54:28.088Z,2.40
2022-12-16T05:57:48.883Z,2.60
2022-12-16T06:01:09.560Z,2.33
2022-12-16T06:04:30.283Z,1.93
2022-12-16T06:07:50.886Z,2.33
2022-12-16T06:11:11.621Z,2.13
2022-12-16T06:14:32.118Z,3.43
2022-12-16T06:17:52.716Z,2.67
2022-12-16T06:21:13.532Z,2.70
2022-12-16T06:24:34.435Z,2.73
2022-12-16T06:27:55.181Z,3.20
2022-12-16T06:31:15.745Z,3.00
2022-12-16T06:34:36.505Z,3.50
2022-12-16T06:37:57.326Z,3.23
2022-12-16T06:41:18.073Z,3.20
2022-12-16T06:44:38.785Z,3.70
2022-12-16T06:48:01.978Z,5.27
2022-12-16T06:51:22.819Z,5.93
2022-12-16T06:54:43.493Z,5.10
2022-12-16T06:58:09.957Z,3.70
2022-12-16T07:01:30.744Z,3.53
2022-12-16T07:04:51.592Z,4.40
2022-12-16T07:08:13.632Z,4.10
2022-12-16T07:11:42.151Z,4.33
2022-12-16T07:15:02.957Z,7.10
2022-12-16T07:18:23.620Z,4.70
2022-12-16T07:21:44.191Z,5.23
2022-12-16T07:25:04.839Z,6.10
2022-12-16T07:28:25.661Z,5.73
2022-12-16T07:31:46.410Z,5.83
2022-12-16T07:35:07.042Z,6.80
2022-12-16T07:38:27.807Z,5.50
2022-12-16T07:41:48.513Z,6.33
2022-12-16T07:45:09.281Z,5.23
2022-12-16T07:48:29.983Z,4.77
2022-12-16T07:51:54.006Z,6.03
2022-12-16T07:55:16.473Z,4.60
2022-12-16T07:58:37.164Z,5.23
2022-12-16T08:01:58.067Z,3.03
2022-12-16T08:05:18.737Z,3.73
2022-12-16T08:08:39.388Z,3.53
2022-12-16T08:11:59.950Z,4.17
2022-12-16T08:15:20.577Z,5.83
2022-12-16T08:18:51.927Z,5.00
2022-12-16T08:22:13.460Z,4.37
2022-12-16T08:25:34.293Z,4.63
2022-12-16T08:28:54.918Z,4.07
2022-12-16T08:32:15.544Z,3.70
2022-12-16T08:35:36.162Z,4.53
2022-12-16T08:38:56.858Z,4.87
2022-12-16T08:42:17.236Z,5.50
2022-12-16T08:45:38.129Z,4.25
2022-12-16T08:48:59.809Z,5.20
2022-12-16T08:52:20.382Z,3.07
2022-12-16T08:55:40.820Z,2.93
2022-12-16T08:59:01.631Z,3.58
2022-12-16T09:02:33.912Z,5.27
2022-12-16T09:06:06.944Z,3.23
2022-12-16T09:09:29.497Z,2.67
2022-12-16T09:12:50.663Z,4.35
2022-12-16T09:16:15.830Z,3.13
2022-12-16T09:19:38.085Z,4.10
2022-12-16T09:23:04.048Z,4.43
2022-12-16T09:26:33.884Z,6.45
2022-12-16T09:29:56.626Z,5.47
2022-12-16T09:33:17.238Z,6.13
2022-12-16T09:36:37.953Z,6.20
2022-12-16T09:39:58.655Z,4.65
2022-12-16T09:43:46.500Z,5.43
2022-12-16T09:47:23.431Z,4.00
2022-12-16T09:50:48.733Z,3.75
2022-12-16T09:54:14.773Z,3.55
2022-12-16T09:57:35.989Z,4.20
2022-12-16T10:01:13.319Z,3.42
2022-12-16T10:04:35.771Z,3.38
2022-12-16T10:08:49.272Z,3.28
2022-12-16T10:12:24.376Z,4.10
2022-12-16T10:19:20.623Z,4.20
2022-12-16T10:23:30.420Z,3.67
2022-12-16T10:27:21.046Z,3.22
2022-12-16T10:30:41.799Z,3.28
2022-12-16T10:34:05.589Z,3.72
2022-12-16T10:37:34.604Z,2.57
2022-12-16T10:40:55.525Z,3.33
2022-12-16T10:44:17.776Z,3.83
2022-12-16T10:47:39.002Z,3.30
2022-12-16T10:50:59.785Z,2.58
2022-12-16T10:54:41.621Z,3.67
2022-12-16T10:58:11.979Z,2.72
2022-12-16T11:01:47.022Z,2.65
2022-12-16T11:05:08.613Z,2.50
2022-12-16T11:08:55.515Z,3.63
2022-12-16T11:12:40.066Z,2.53
2022-12-16T11:16:00.776Z,2.75
2022-12-16T11:19:21.700Z,2.42
2022-12-16T11:22:42.548Z,2.53
2022-12-16T11:26:03.185Z,2.22
2022-12-16T11:29:31.454Z,2.83
2022-12-16T11:32:52.888Z,2.92
2022-12-16T11:36:30.429Z,1.90
2022-12-16T11:39:52.280Z,2.80
2022-12-16T11:43:16.894Z,2.53
2022-12-16T11:46:45.863Z,3.13
2022-12-16T11:50:06.442Z,2.92
2022-12-16T11:53:55.682Z,1.85
2022-12-16T11:57:18.890Z,1.77
2022-12-16T12:00:39.504Z,1.50
2022-12-16T12:04:03.017Z,2.70
2022-12-16T12:07:48.711Z,3.22
2022-12-16T12:11:09.631Z,2.95
2022-12-16T12:14:58.111Z,3.10
2022-12-16T12:18:31.778Z,2.58
2022-12-16T12:22:30.126Z,4.30
2022-12-16T12:26:10.088Z,3.28
2022-12-16T12:29:51.195Z,3.00
2022-12-16T12:33:48.337Z,3.53
2022-12-16T12:37:27.416Z,2.80
2022-12-16T12:41:13.628Z,4.10
2022-12-16T12:44:50.101Z,2.42
2022-12-16T12:48:21.544Z,3.03
2022-12-16T12:52:01.001Z,2.97
2022-12-16T12:55:49.908Z,2.88
2022-12-16T12:59:14.056Z,2.60
2022-12-16T13:02:39.804Z,2.37
2022-12-16T13:06:00.878Z,3.47
2022-12-16T13:09:22.665Z,1.85
2022-12-16T13:12:51.689Z,2.80
2022-12-16T13:16:13.049Z,2.20
2022-12-16T13:19:48.626Z,2.75
2022-12-16T13:23:09.245Z,2.70
2022-12-16T13:26:29.946Z,3.20
2022-12-16T13:29:50.960Z,3.15
2022-12-16T13:33:42.359Z,2.15
2022-12-16T13:37:12.067Z,2.45
2022-12-16T13:40:38.361Z,3.13
2022-12-16T13:44:09.700Z,2.80
2022-12-16T13:48:12.566Z,2.85
2022-12-16T13:51:58.172Z,2.90
2022-12-16T13:55:30.020Z,2.53
2022-12-16T13:59:04.031Z,1.90
2022-12-16T14:02:50.020Z,3.42
2022-12-16T14:06:24.157Z,4.88
2022-12-16T14:10:03.149Z,2.58
2022-12-16T14:13:36.232Z,2.85
2022-12-16T14:17:20.369Z,3.05
2022-12-16T14:20:59.131Z,3.20
2022-12-16T14:24:29.154Z,3.00
2022-12-16T14:27:53.025Z,2.35
2022-12-16T14:31:24.461Z,3.25
2022-12-16T14:34:55.287Z,2.83
2022-12-16T14:38:16.981Z,3.50
2022-12-16T14:41:42.127Z,4.40
2022-12-16T14:45:26.308Z,4.32
2022-12-16T14:48:57.669Z,3.53
2022-12-16T14:52:18.605Z,2.15
2022-12-16T14:55:48.240Z,3.17
2022-12-16T14:59:31.463Z,3.63
2022-12-16T15:03:02.610Z,2.30
2022-12-16T15:06:29.631Z,2.08
2022-12-16T15:09:59.290Z,1.60
2022-12-16T15:13:20.078Z,2.65
2022-12-16T15:16:46.877Z,5.18
2022-12-16T15:20:12.133Z,1.88
2022-12-16T15:23:41.465Z,1.58
2022-12-16T15:27:03.155Z,1.90
2022-12-16T15:31:02.240Z,2.35
2022-12-16T15:34:45.981Z,2.67
2022-12-16T15:38:06.655Z,3.53
2022-12-16T15:41:45.519Z,5.00
2022-12-16T15:45:08.756Z,3.67
2022-12-16T15:48:42.601Z,3.60
2022-12-16T15:52:07.773Z,5.87
2022-12-16T15:55:51.410Z,7.82
2022-12-16T15:59:45.761Z,4.95
2022-12-16T16:03:08.211Z,4.82
2022-12-16T16:06:43.222Z,4.03
2022-12-16T16:10:04.154Z,5.45
2022-12-16T16:13:25.298Z,5.28
2022-12-16T16:16:46.016Z,6.20
2022-12-16T16:20:06.836Z,5.85
2022-12-16T16:23:28.988Z,7.68
2022-12-16T16:26:49.796Z,5.90
2022-12-16T16:30:10.594Z,4.97
2022-12-16T16:33:31.119Z,4.85
2022-12-16T16:36:51.825Z,4.07
2022-12-16T16:40:12.738Z,3.80
2022-12-16T16:43:33.643Z,5.43
2022-12-16T16:47:00.599Z,4.85
2022-12-16T16:50:21.723Z,4.50
2022-12-16T16:53:42.507Z,5.63
2022-12-16T16:57:03.290Z,8.27
2022-12-16T17:00:24.398Z,5.37
2022-12-16T17:03:45.289Z,5.47
2022-12-16T17:07:06.359Z,7.20
2022-12-16T17:10:28.151Z,5.47
2022-12-16T17:13:48.726Z,7.67
2022-12-16T17:17:09.397Z,4.77
2022-12-16T17:20:35.692Z,12.43
2022-12-16T17:23:56.238Z,5.50
2022-12-16T17:27:17.054Z,4.83
2022-12-16T17:30:46.941Z,5.40
2022-12-16T17:34:07.908Z,5.33
2022-12-16T17:37:28.558Z,4.67
2022-12-16T17:40:49.455Z,4.23
2022-12-16T17:44:11.646Z,6.77
2022-12-16T17:47:32.411Z,5.90
2022-12-16T17:50:53.167Z,4.97
2022-12-16T17:54:21.633Z,6.33
2022-12-16T17:57:44.446Z,5.17
2022-12-16T18:01:05.092Z,5.10
2022-12-16T18:04:26.705Z,4.03
2022-12-16T18:07:47.402Z,9.73
2022-12-16T18:11:12.068Z,5.17
2022-12-16T18:14:32.628Z,5.18
2022-12-16T18:17:53.517Z,5.47
2022-12-16T18:21:13.890Z,6.37
2022-12-16T18:24:34.757Z,6.03
2022-12-16T18:27:55.427Z,5.90
2022-12-16T18:31:16.113Z,6.23
2022-12-16T18:34:36.834Z,6.20
2022-12-16T18:37:57.832Z,9.40
2022-12-16T18:41:22.878Z,7.07
2022-12-16T18:44:57.686Z,7.32
2022-12-16T18:48:21.462Z,5.47
2022-12-16T18:51:42.687Z,7.27
2022-12-16T18:55:03.399Z,7.80
2022-12-16T19:02:04.756Z,9.50
2022-12-16T19:05:25.940Z,7.73
2022-12-16T19:08:48.651Z,8.13
2022-12-16T19:12:09.330Z,9.70
2022-12-16T19:15:30.944Z,8.47
2022-12-16T19:18:52.828Z,8.30
2022-12-16T19:22:16.690Z,8.32
2022-12-16T19:25:37.548Z,10.07
2022-12-16T19:28:58.218Z,8.50
2022-12-16T19:32:25.296Z,9.60
2022-12-16T19:35:46.004Z,9.87
2022-12-16T19:39:06.822Z,8.40
2022-12-16T19:42:27.580Z,9.20
2022-12-16T19:45:49.337Z,11.47
2022-12-16T19:49:10.076Z,11.13
2022-12-16T19:52:31.081Z,11.43
2022-12-16T19:55:51.847Z,9.80
2022-12-16T19:59:14.277Z,14.43
2022-12-16T20:02:35.536Z,10.40
2022-12-16T20:05:56.101Z,9.50
2022-12-16T20:09:16.805Z,9.63
2022-12-16T20:12:37.526Z,9.23
2022-12-16T20:15:58.270Z,7.53
2022-12-16T20:19:19.083Z,8.23
2022-12-16T20:22:39.721Z,8.57
2022-12-16T20:26:00.440Z,10.00
2022-12-16T20:29:21.174Z,7.30
2022-12-16T20:32:41.918Z,13.10
2022-12-16T20:36:02.581Z,10.27
2022-12-16T20:39:23.210Z,10.07
2022-12-16T20:42:44.878Z,10.73
2022-12-16T20:46:05.569Z,10.60
2022-12-16T20:49:25.922Z,11.33
2022-12-16T20:52:46.842Z,12.67
2022-12-16T20:56:07.491Z,10.40
2022-12-16T20:59:28.302Z,9.77
2022-12-16T21:02:49.077Z,11.60
2022-12-16T21:06:09.656Z,11.50
2022-12-16T21:09:30.262Z,10.93
2022-12-16T21:12:50.925Z,12.57
2022-12-16T21:16:12.039Z,11.00
2022-12-16T21:19:36.280Z,13.90
2022-12-16T21:22:56.979Z,14.88
2022-12-16T21:26:18.495Z,13.00
2022-12-16T21:29:39.148Z,12.13
2022-12-16T21:33:15.919Z,12.63
2022-12-16T21:36:38.517Z,13.07
2022-12-16T21:39:59.182Z,13.87
2022-12-16T21:43:20.047Z,12.40
2022-12-16T21:46:40.769Z,13.20
2022-12-16T21:50:01.695Z,13.27
2022-12-16T21:53:22.463Z,14.50
2022-12-16T21:56:43.140Z,11.13
2022-12-16T22:00:03.381Z,11.57
2022-12-16T22:03:24.040Z,13.60
2022-12-16T22:10:29.037Z,11.07
2022-12-16T22:13:50.283Z,14.33
2022-12-16T22:17:10.992Z,13.30
2022-12-16T22:20:31.708Z,11.73
2022-12-16T22:23:52.528Z,13.97
2022-12-16T22:27:16.932Z,11.20
2022-12-16T22:30:37.765Z,8.07
2022-12-16T22:33:58.531Z,11.47
2022-12-16T22:37:18.912Z,8.07
2022-12-16T22:40:39.512Z,7.07
2022-12-16T22:44:01.168Z,10.20
2022-12-16T22:47:21.861Z,9.27
2022-12-16T22:50:44.140Z,7.13
2022-12-16T22:54:07.277Z,6.23
2022-12-16T22:57:29.064Z,6.93
2022-12-16T23:00:49.824Z,6.33
2022-12-16T23:04:10.602Z,5.67
2022-12-16T23:07:31.479Z,5.67
2022-12-16T23:11:00.380Z,4.97
2022-12-16T23:14:20.884Z,6.53
2022-12-16T23:17:41.564Z,5.93
2022-12-16T23:21:06.736Z,5.20
2022-12-16T23:24:28.934Z,5.70
2022-12-16T23:27:49.406Z,4.83
2022-12-16T23:31:15.125Z,5.40
2022-12-16T23:34:36.759Z,4.10
2022-12-16T23:37:58.197Z,5.23
2022-12-16T23:41:19.085Z,5.13
2022-12-16T23:44:39.676Z,4.93
2022-12-16T23:48:00.190Z,4.97
2022-12-16T23:51:20.990Z,5.30
2022-12-16T23:54:41.580Z,5.27
2022-12-16T23:58:02.064Z,4.20
